Main page
Satellite images 15-day forecastsClimateMarine weather Cyclones Lightning AirportsFAQ Newsletter About
Weather : Europe Africa North America South America Asia Australia-Oceania Others
Languages Contact

Rovaniemi, Finland

latitude: 66-34N, longitude: 025-50E, elevation: 197 m


METAR: EFRO 230250Z AUTO 33004KT 7000 -SHSN OVC015 M18/M19 Q0992
TAF: EFRO 230223Z 2303/2403 34003KT 9999 -SN SCT013 BKN015 TEMPO 2303/2306 BKN013

Time: 04:57 (02:57 UTC)

Current weather observation

The report was made 7 minutes ago, at 02:50 UTC
Wind 4 kt from the North/Northwest
Temperature -18°C
Humidity 92%
Pressure 992 hPa
Visibility: 7000 m
Overcast at a height of 1500 ft
light snow showers

Change units

Forecast

The report was made 34 minutes ago, at 02:23 UTC
Forecast valid from 23 at 03 UTC to 24 at 03 UTC
Wind 3 kt from the North/Northwest
Visibility 10 km or more
Scattered clouds at a height of 1300 ft
Broken clouds at a height of 1500 ft
light snow
Temporary
from 23 at 03 UTC to 23 at 06 UTC
Broken clouds at a height of 1300 ft
The information on this site is subject to a disclaimer
Weather : Europe Africa North America South America Asia Australia-Oceania Others
Satellite images 15-day forecastsClimateMarine weather Cyclones Lightning AirportsFAQ Languages Contact Newsletter About